Time;durP1;ratioP1;P1;durP2;ratioP2;P2;SDS_P1;SDS_P2;PMS_P1;PMS_P2;Temp;Humidity;BMP_temperature;BMP_pressure;BME280_temperature;BME280_humidity;BME280_pressure;Samples;Min_cycle;Max_cycle;Signal;HPM_P1;HPM_P2
2021/05/15 07:59:27;;;;;;;26.27;17.60;;;11.50;99.90;;;-143.32;100.00;53115.63;5844533;23;20491;-94
2021/05/15 08:29:54;;;;;;;33.40;20.33;;;11.20;73.00;;;-143.32;100.00;52966.19;4935332;29;20521;-93
2021/05/15 08:36:03;;;;;;;39.63;23.27;;;11.20;99.90;;;-143.32;100.00;52935.91;4919351;29;20771;-93
2021/05/15 08:38:32;;;;;;;37.60;22.87;;;11.10;99.90;;;-143.32;100.00;52939.94;4918217;29;20546;-92
2021/05/15 08:40:59;;;;;;;38.00;22.97;;;11.10;99.90;;;-143.32;100.00;52943.97;4919955;29;20475;-90
2021/05/15 08:43:28;;;;;;;40.87;23.83;;;11.00;99.90;;;-143.32;100.00;52895.50;4918120;29;20459;-90
2021/05/15 08:45:58;;;;;;;42.67;24.23;;;11.00;99.90;;;-143.32;100.00;52861.19;4918220;29;20467;-90
2021/05/15 08:48:25;;;;;;;39.23;23.13;;;11.00;99.90;;;-143.32;100.00;52784.44;4918079;29;20546;-89
2021/05/15 08:50:52;;;;;;;34.60;21.33;;;11.00;99.90;;;-143.32;100.00;52663.28;4917137;29;20950;-89
2021/05/15 08:53:20;;;;;;;34.03;22.00;;;11.00;99.90;;;-143.32;100.00;52663.28;4917795;29;20811;-90
2021/05/15 08:55:59;;;;;;;36.07;22.40;;;10.90;99.90;;;-143.32;100.00;52608.75;4917670;29;20471;-88
2021/05/15 08:58:29;;;;;;;47.30;25.53;;;10.90;99.90;;;-143.32;100.00;52493.66;4917465;29;20471;-90
2021/05/15 09:00:57;;;;;;;45.00;25.30;;;10.80;99.90;;;-143.32;100.00;52320.03;4918110;29;20458;-87
2021/05/15 09:03:26;;;;;;;48.87;27.43;;;10.90;99.90;;;-143.32;100.00;52069.66;4921742;29;20451;-91
2021/05/15 09:09:34;;;;;;;57.17;29.90;;;11.10;99.90;;;-143.32;100.00;51613.41;4917789;29;20414;-91
2021/05/15 09:15:44;;;;;;;53.90;30.90;;;11.70;99.90;;;-143.32;100.00;51944.50;4918494;29;20421;-90
2021/05/15 09:18:15;;;;;;;50.73;29.50;;;12.10;99.90;;;-143.32;100.00;52069.66;4917510;29;20487;-89
2021/05/15 09:20:42;;;;;;;52.60;29.27;;;12.30;99.90;;;-143.32;100.00;52118.13;4918529;29;20497;-92
2021/05/15 09:23:17;;;;;;;42.20;26.63;;;12.80;99.90;;;-143.32;100.00;52217.06;4917952;29;20784;-89
2021/05/15 09:25:45;;;;;;;41.80;25.43;;;13.10;99.90;;;-143.32;100.00;52376.56;4917714;29;20898;-88
2021/05/15 09:28:12;;;;;;;42.20;27.07;;;13.20;99.90;;;-143.32;100.00;52396.75;4917994;29;20435;-90
2021/05/15 09:30:39;;;;;;;49.70;29.60;;;13.10;99.90;;;-143.32;100.00;52418.97;4917592;29;20455;-89
2021/05/15 09:33:14;;;;;;;41.77;27.53;;;13.10;1.00;;;-143.32;100.00;52420.97;4917261;29;20553;-90
2021/05/15 09:35:41;;;;;;;42.07;25.57;;;12.90;99.90;;;-143.32;100.00;52429.06;4918102;29;20477;-90
2021/05/15 09:38:10;;;;;;;43.20;26.00;;;12.90;99.90;;;-143.32;100.00;52431.06;4917622;29;21016;-93
2021/05/15 09:40:40;;;;;;;40.57;25.30;;;13.00;1.00;;;-143.32;100.00;52410.88;4918309;29;20443;-91
2021/05/15 09:43:08;;;;;;;42.17;24.60;;;13.10;99.90;;;-143.32;100.00;52374.53;4917525;29;20451;-92
2021/05/15 09:49:23;;;;;;;28.90;20.10;;;13.40;1.00;;;-143.32;100.00;52435.09;4918173;29;20410;-90
2021/05/15 09:51:53;;;;;;;31.27;22.73;;;13.40;99.90;;;-143.32;100.00;52515.88;4917547;29;20473;-90
2021/05/15 09:58:04;;;;;;;21.07;14.33;;;13.30;99.90;;;-143.32;100.00;52469.44;4917357;29;20485;-88
2021/05/15 10:04:11;;;;;;;19.13;14.53;;;14.00;99.90;;;-143.32;99.94;52435.09;4920810;29;20410;-91
2021/05/15 10:06:49;;;;;;;16.37;13.13;;;14.20;1.00;;;-143.32;98.98;52483.56;4920696;29;20451;-90
2021/05/15 10:09:29;;;;;;;17.80;12.70;;;14.40;99.90;;;-143.32;98.93;52534.06;4921881;29;20438;-91
2021/05/15 10:12:08;;;;;;;15.93;11.50;;;14.30;1.00;;;-143.32;98.71;52570.41;4923237;29;20447;-92
2021/05/15 10:14:34;;;;;;;15.70;11.47;;;14.20;1.00;;;-143.32;98.38;52536.06;4921888;29;21074;-88
2021/05/15 10:17:01;;;;;;;15.70;10.87;;;14.20;33.40;;;-143.32;97.91;52562.31;4921768;29;20461;-89
2021/05/15 10:19:36;;;;;;;13.03;10.47;;;14.30;1.00;;;-143.32;94.79;52645.09;4921086;29;21009;-94
2021/05/15 10:22:04;;;;;;;13.57;10.03;;;14.50;99.90;;;-143.32;95.26;52641.06;4921149;29;20442;-91
2021/05/15 10:24:33;;;;;;;13.70;10.50;;;14.40;99.90;;;-143.32;95.80;52677.41;4921321;29;20462;-92
2021/05/15 10:30:40;;;;;;;14.83;10.20;;;14.30;99.90;;;-143.32;93.35;52671.34;4920805;29;20414;-91
2021/05/15 10:33:11;;;;;;;12.17;8.50;;;14.60;64.70;;;-143.32;90.44;52705.69;4921689;29;20482;-92
2021/05/15 10:39:30;;;;;;;12.00;7.90;;;15.10;1.00;;;-143.32;88.10;52776.38;4922231;29;20498;-92
2021/05/15 10:42:00;;;;;;;9.30;7.57;;;15.30;1.00;;;-143.32;86.68;52855.13;4921352;29;20447;-90
2021/05/15 10:44:41;;;;;;;17.70;8.40;;;15.20;99.90;;;-143.32;87.39;52808.66;4923662;29;20526;-92
2021/05/15 10:47:10;;;;;;;13.87;8.00;;;15.30;99.90;;;-143.32;86.91;52788.47;4926062;29;20447;-92
2021/05/15 10:49:44;;;;;;;12.37;9.13;;;15.60;99.90;;;-143.32;86.88;52742.03;4923572;29;20466;-93
2021/05/15 10:52:17;;;;;;;14.53;9.30;;;15.80;99.90;;;-143.32;85.36;52780.41;4928585;29;20442;-90
2021/05/15 10:54:47;;;;;;;11.53;8.30;;;16.10;99.90;;;-143.32;84.18;52863.19;4935730;29;20438;-92
2021/05/15 11:00:55;;;;;;;13.93;9.10;;;15.90;99.90;;;-143.32;82.31;52962.16;4921206;29;20851;-91
2021/05/15 11:03:34;;;;;;;11.00;8.13;;;16.00;99.90;;;-143.32;82.67;53059.09;4919106;29;20478;-89
2021/05/15 11:06:19;;;;;;;9.70;7.33;;;15.60;99.90;;;-143.32;82.85;53012.63;4924085;29;20807;-92
2021/05/15 11:09:04;;;;;;;10.23;7.53;;;15.60;99.90;;;-143.32;82.93;52974.25;4921172;29;20427;-88
2021/05/15 11:11:40;;;;;;;10.07;6.97;;;15.80;99.90;;;-143.32;80.67;52980.31;4920593;29;20524;-92
2021/05/15 11:14:27;;;;;;;9.77;6.87;;;16.10;99.90;;;-143.32;80.60;52978.31;4920476;29;20494;-91
2021/05/15 11:17:25;;;;;;;8.87;6.70;;;16.30;99.90;;;-143.32;79.76;53014.66;4921831;29;20534;-91
2021/05/15 11:23:35;;;;;;;17.17;12.60;;;16.20;99.90;;;-143.32;80.38;53093.41;4920765;29;20414;-90
2021/05/15 11:26:12;;;;;;;7.70;6.40;;;15.80;99.90;;;-143.32;79.41;53131.78;4920614;29;20465;-92
2021/05/15 11:28:47;;;;;;;9.13;6.40;;;15.70;99.90;;;-143.32;79.88;53129.75;4922053;29;20819;-91
2021/05/15 11:31:43;;;;;;;6.27;4.60;;;15.70;99.90;;;-143.32;80.62;53218.63;4920019;29;20498;-90
2021/05/15 11:34:16;;;;;;;3.70;2.30;;;15.20;99.90;;;-143.32;84.13;53236.81;4919640;29;20894;-91
2021/05/15 11:36:45;;;;;;;4.80;2.03;;;14.50;99.90;;;-143.32;86.49;53319.59;4920454;29;20455;-89
2021/05/15 11:39:51;;;;;;;8.83;1.70;;;14.10;99.90;;;-143.32;89.03;53408.47;4920474;29;20491;-91
2021/05/15 11:45:32;;;;;;;1.60;1.50;;;12.50;1.00;;;-143.32;95.93;53390.31;4924726;29;20467;-92
2021/05/15 11:48:40;;;;;;;2.40;1.70;;;11.90;99.90;;;-143.32;100.00;53360.00;4921917;29;20495;-93
2021/05/15 17:56:51;;;;;;;9.97;3.63;;;12.80;99.90;;;-143.32;100.00;52655.19;5736283;23;20494;-95
2021/05/15 17:59:33;;;;;;;5.03;2.83;;;12.90;99.90;;;-143.32;100.00;52681.47;4921133;29;20586;-92
2021/05/15 18:02:00;;;;;;;4.00;3.07;;;13.00;1.00;;;-143.32;100.00;52733.97;4901575;29;20474;-92
2021/05/15 18:04:56;;;;;;;5.47;2.93;;;12.90;1.00;;;-143.32;100.00;52711.75;4923059;29;20466;-93
2021/05/15 18:07:32;;;;;;;7.10;3.40;;;12.90;99.90;;;-143.32;100.00;52675.41;4931489;29;20467;-93
2021/05/15 18:10:07;;;;;;;7.77;3.60;;;13.00;1.00;;;-143.32;100.00;52669.34;4932038;29;20458;-93
2021/05/15 18:12:38;;;;;;;6.17;3.70;;;13.10;99.90;;;-143.32;100.00;52675.41;4933921;29;20488;-94
2021/05/15 18:18:58;;;;;;;5.43;3.17;;;13.20;2.40;;;-143.32;100.00;52663.28;4923921;29;20459;-94
2021/05/15 18:21:37;;;;;;;5.63;3.33;;;13.10;99.90;;;-143.32;100.00;52659.25;4919550;29;20450;-93
2021/05/15 18:24:59;;;;;;;4.90;2.90;;;13.00;99.90;;;-143.32;100.00;52717.81;4926765;29;20764;-94
2021/05/15 18:27:28;;;;;;;6.57;4.23;;;12.90;99.90;;;-143.32;100.00;52663.28;4891568;29;20484;-94
2021/05/15 18:34:44;;;;;;;;;;;;;;;;;;;;;
2021/05/15 18:37:23;;;;;;;7.10;3.10;;;12.60;99.90;;;-143.32;100.00;52733.97;4922798;29;20454;-93
2021/05/15 18:39:55;;;;;;;6.90;3.13;;;12.50;99.90;;;-143.32;100.00;52738.00;4921510;29;20830;-91
2021/05/15 18:42:58;;;;;;;;;;;;;;;;;;;;;
2021/05/15 18:53:06;;;;;;;4.90;3.23;;;12.20;1.00;;;-143.32;100.00;52778.38;4838634;29;20423;-92
2021/05/15 18:55:33;;;;;;;9.03;3.53;;;12.10;1.00;;;-143.32;100.00;52766.25;4881208;29;20555;-93
2021/05/15 18:57:59;;;;;;;6.40;3.37;;;12.10;1.00;;;-143.32;100.00;52782.41;4919975;29;20787;-95
2021/05/15 19:00:26;;;;;;;6.43;3.57;;;12.10;1.00;;;-143.32;100.00;52776.38;4919790;29;20522;-94
2021/05/15 19:02:54;;;;;;;5.33;3.33;;;12.10;1.00;;;-143.32;100.00;52742.03;4920187;29;20451;-90
2021/05/15 19:05:21;;;;;;;5.90;3.53;;;12.10;99.90;;;-143.32;100.00;52770.31;4919960;29;20462;-90
2021/05/15 19:11:30;;;;;;;4.93;3.20;;;12.10;99.90;;;-143.32;100.00;52784.44;4920007;29;20504;-91
2021/05/15 19:13:56;;;;;;;4.40;3.20;;;12.20;1.00;;;-143.32;100.00;52754.16;4920053;29;20458;-93
2021/05/15 19:16:25;;;;;;;7.00;3.37;;;12.10;7.80;;;-143.32;100.00;52760.22;4919921;29;20443;-93
2021/05/15 19:18:52;;;;;;;10.90;3.60;;;12.20;58.40;;;-143.32;100.00;52796.56;4920100;29;20594;-92
2021/05/15 19:21:19;;;;;;;4.23;3.70;;;12.10;1.00;;;-143.32;100.00;52788.47;4920338;29;20451;-92
2021/05/15 19:23:51;;;;;;;7.73;3.70;;;12.10;1.00;;;-143.32;100.00;52800.59;4919725;29;20443;-92
2021/05/15 19:26:18;;;;;;;4.77;3.27;;;12.00;75.20;;;-143.32;100.00;52746.06;4919896;29;20468;-92
2021/05/15 19:28:46;;;;;;;5.80;3.50;;;12.00;99.90;;;-143.32;100.00;52733.97;4919888;29;20459;-92
2021/05/15 19:31:13;;;;;;;9.10;4.10;;;12.10;99.90;;;-143.32;100.00;52766.25;4920469;29;20454;-94
2021/05/15 19:33:39;;;;;;;10.93;4.27;;;12.10;99.90;;;-143.32;100.00;52766.25;4918948;29;20538;-94
2021/05/15 19:36:08;;;;;;;9.57;4.20;;;12.10;34.90;;;-143.32;100.00;52776.38;4919637;29;20523;-94
2021/05/15 19:38:35;;;;;;;8.70;4.40;;;12.10;95.40;;;-143.32;100.00;52762.22;4920029;29;20494;-93
2021/05/15 19:41:02;;;;;;;5.40;4.20;;;12.00;99.90;;;-143.32;100.00;52746.06;4919544;29;20510;-92
2021/05/15 19:43:29;;;;;;;5.67;4.20;;;12.00;63.10;;;-143.32;100.00;52804.63;4919250;29;20947;-92
2021/05/15 19:45:58;;;;;;;7.13;3.87;;;12.00;1.00;;;-143.32;100.00;52798.56;4920097;29;20443;-91
2021/05/15 19:48:25;;;;;;;4.90;3.07;;;12.00;1.00;;;-143.32;100.00;52818.78;4919698;29;20455;-93
2021/05/15 19:50:52;;;;;;;5.17;3.60;;;12.00;1.00;;;-143.32;100.00;52784.44;4920588;29;20466;-92
2021/05/15 19:53:23;;;;;;;7.50;4.17;;;11.90;1.00;;;-143.32;100.00;52802.63;4919202;29;20486;-93
2021/05/15 19:55:50;;;;;;;10.70;5.43;;;11.80;99.90;;;-143.32;100.00;52764.25;4919541;29;20440;-92
2021/05/15 20:01:59;;;;;;;13.83;4.90;;;11.70;99.90;;;-143.32;100.00;52756.16;4919380;29;20467;-92
2021/05/15 20:04:26;;;;;;;5.33;3.93;;;11.70;99.90;;;-143.32;100.00;52754.16;4919697;29;20534;-91
2021/05/15 20:06:58;;;;;;;8.17;4.23;;;11.60;99.90;;;-143.32;100.00;52784.44;4919380;29;20446;-93
2021/05/15 20:09:25;;;;;;;12.63;5.07;;;11.60;99.90;;;-143.32;100.00;52798.56;4920161;29;20462;-94
2021/05/15 20:15:45;;;;;;;4.80;3.20;;;11.40;99.90;;;-143.32;100.00;52774.34;4923269;29;20756;-93
2021/05/15 20:18:13;;;;;;;4.90;3.53;;;11.40;99.90;;;-143.32;100.00;52776.38;4920396;29;20497;-94
2021/05/15 20:20:41;;;;;;;9.23;3.10;;;11.40;99.90;;;-143.32;100.00;52735.97;4918898;29;20800;-91
2021/05/15 20:23:09;;;;;;;7.23;3.40;;;11.30;99.90;;;-143.32;100.00;52790.50;4918883;29;20957;-92
2021/05/15 20:25:36;;;;;;;4.07;2.63;;;11.20;99.90;;;-143.32;100.00;52778.38;4918795;29;20998;-93
2021/05/15 20:34:44;;;;;;;5.90;2.00;;;11.00;99.90;;;-143.32;100.00;52824.81;4916714;29;20458;-91
2021/05/15 20:37:14;;;;;;;4.00;2.00;;;10.90;99.90;;;-143.32;100.00;52859.16;4918359;29;20848;-92
2021/05/15 20:39:43;;;;;;;4.50;2.47;;;10.70;99.90;;;-143.32;100.00;52834.94;4920664;29;21013;-93
2021/05/15 20:42:10;;;;;;;3.30;2.50;;;10.60;99.90;;;-143.32;100.00;52818.78;4931197;29;20443;-93
2021/05/15 20:44:37;;;;;;;4.87;3.20;;;10.50;99.90;;;-143.32;100.00;52808.66;4930272;29;20556;-91
2021/05/15 20:47:08;;;;;;;3.33;2.47;;;10.40;99.90;;;-143.32;100.00;52808.66;4918798;29;20443;-91
2021/05/15 20:49:35;;;;;;;4.63;2.57;;;10.40;99.90;;;-143.32;100.00;52756.16;4918414;29;20950;-91
2021/05/15 20:52:03;;;;;;;6.23;3.03;;;10.40;99.90;;;-143.32;100.00;52713.75;4919748;29;20447;-94
2021/05/15 20:54:34;;;;;;;5.70;3.50;;;10.40;99.90;;;-143.32;100.00;52725.88;4920984;29;20471;-92
2021/05/15 20:57:18;;;;;;;8.80;3.90;;;10.40;99.90;;;-143.32;100.00;52649.16;4920920;29;20474;-93
2021/05/15 20:59:55;;;;;;;4.67;3.40;;;10.40;99.90;;;-143.32;100.00;52661.25;4924132;29;20518;-91
2021/05/15 21:02:25;;;;;;;6.20;3.93;;;10.30;99.90;;;-143.32;100.00;52685.50;4918686;29;20424;-93
2021/05/15 21:04:52;;;;;;;5.67;3.00;;;10.20;99.90;;;-143.32;100.00;52659.25;4921280;29;20471;-93
2021/05/15 21:07:19;;;;;;;5.87;3.87;;;10.20;99.90;;;-143.32;100.00;52683.47;4922416;29;20462;-93
2021/05/15 21:09:48;;;;;;;7.00;3.90;;;10.10;99.90;;;-143.32;100.00;52655.19;4919665;29;20455;-92
2021/05/15 21:12:20;;;;;;;11.30;4.93;;;10.00;99.90;;;-143.32;100.00;52635.00;4924482;29;20447;-93
2021/05/15 21:14:47;;;;;;;8.10;4.30;;;10.00;99.90;;;-143.32;100.00;52635.00;4920767;29;20528;-93
2021/05/15 21:17:13;;;;;;;14.00;4.80;;;10.00;99.90;;;-143.32;100.00;52566.34;4918737;29;20467;-93
2021/05/15 21:19:40;;;;;;;7.57;4.40;;;9.80;99.90;;;-143.32;100.00;52590.59;4919596;29;20487;-93
2021/05/15 21:22:08;;;;;;;5.10;3.90;;;9.70;99.90;;;-143.32;100.00;52554.25;4918780;29;20435;-92
2021/05/15 21:24:36;;;;;;;9.23;5.20;;;9.70;99.90;;;-143.32;100.00;52507.81;4918808;29;20481;-93
2021/05/15 21:27:04;;;;;;;8.00;5.10;;;9.70;99.90;;;-143.32;100.00;52414.91;4918789;29;20443;-91
2021/05/15 21:29:45;;;;;;;;;;;;;;;;;;;;;
2021/05/15 21:32:12;;;;;;;15.23;5.10;;;9.60;99.90;;;-143.32;100.00;52386.66;4916655;29;20443;-92
2021/05/15 21:34:39;;;;;;;14.40;5.77;;;9.50;99.90;;;-143.32;100.00;52346.28;4918991;29;20459;-90
2021/05/15 21:37:07;;;;;;;11.77;5.50;;;9.50;99.90;;;-143.32;100.00;52269.53;4919126;29;20443;-93
2021/05/15 21:39:35;;;;;;;8.87;5.70;;;9.50;99.90;;;-143.32;100.00;52229.16;4918932;29;20490;-92
2021/05/15 21:42:02;;;;;;;8.93;5.03;;;9.40;99.90;;;-143.32;100.00;52055.53;4922088;29;20459;-92
2021/05/15 21:44:31;;;;;;;10.13;5.30;;;9.50;99.90;;;-143.32;100.00;52005.06;4924580;29;20459;-93
2021/05/15 21:46:58;;;;;;;12.37;5.33;;;9.40;99.90;;;-143.32;100.00;52005.06;4921561;29;20994;-93
2021/05/15 21:53:05;;;;;;;9.80;5.00;;;9.40;99.90;;;-143.32;100.00;51926.31;4918531;29;20415;-92
2021/05/15 21:55:39;;;;;;;10.60;6.13;;;9.60;99.90;;;-143.32;100.00;51920.25;4919093;29;20546;-94
2021/05/15 21:58:06;;;;;;;13.07;5.40;;;9.50;99.90;;;-143.32;100.00;51904.13;4921238;29;20465;-92
2021/05/15 22:00:44;;;;;;;10.47;4.70;;;9.50;99.90;;;-143.32;100.00;51914.22;4921593;29;20511;-91
2021/05/15 22:03:13;;;;;;;8.93;5.03;;;9.60;99.90;;;-143.32;100.00;51924.31;4922344;29;20454;-94
2021/05/15 22:05:43;;;;;;;8.87;4.90;;;9.70;99.90;;;-143.32;100.00;51918.25;4922765;29;20454;-92
2021/05/15 22:08:11;;;;;;;11.13;5.47;;;9.60;99.90;;;-143.32;100.00;51869.78;4922805;29;20537;-93
2021/05/15 22:10:40;;;;;;;12.77;5.27;;;9.60;99.90;;;-143.32;100.00;51942.47;4921916;29;20986;-94
2021/05/15 22:13:08;;;;;;;9.00;4.87;;;9.60;99.90;;;-143.32;100.00;51934.41;4921829;29;20451;-92
2021/05/15 22:19:15;;;;;;;12.63;4.70;;;9.70;99.90;;;-143.32;100.00;51928.34;4921315;29;20466;-93
2021/05/15 22:21:42;;;;;;;14.07;3.70;;;9.70;99.90;;;-143.32;100.00;51976.78;4920879;29;20443;-92
2021/05/15 22:24:10;;;;;;;8.60;3.47;;;9.70;99.90;;;-143.32;100.00;51976.78;4920999;29;20470;-93
2021/05/15 22:26:37;;;;;;;8.70;3.13;;;9.70;99.90;;;-143.32;100.00;51986.88;4921477;29;20451;-93
2021/05/15 22:29:04;;;;;;;9.90;4.07;;;9.70;99.90;;;-143.32;100.00;52009.09;4920927;29;20506;-93
2021/05/15 22:31:31;;;;;;;7.80;3.10;;;9.70;99.90;;;-143.32;100.00;52009.09;4920955;29;20451;-93
2021/05/15 22:33:58;;;;;;;11.17;3.50;;;9.70;99.90;;;-143.32;100.00;52037.38;4920781;29;20811;-93
2021/05/15 22:36:26;;;;;;;15.57;4.80;;;9.70;99.90;;;-143.32;100.00;52025.25;4920638;29;20440;-92
2021/05/15 22:38:56;;;;;;;7.10;3.47;;;9.70;99.90;;;-143.32;100.00;52025.25;4920994;29;20946;-93
2021/05/15 22:41:23;;;;;;;9.00;3.30;;;9.70;99.90;;;-143.32;100.00;52035.34;4920626;29;20436;-92
2021/05/15 22:43:52;;;;;;;12.00;3.37;;;9.80;99.90;;;-143.32;100.00;52031.31;4920946;29;20447;-93
2021/05/15 22:46:19;;;;;;;9.00;2.93;;;9.90;99.90;;;-143.32;100.00;52027.28;4920880;29;20459;-94
2021/05/15 22:48:46;;;;;;;11.17;3.50;;;9.80;99.90;;;-143.32;100.00;52043.41;4920800;29;20922;-93
2021/05/15 22:51:16;;;;;;;10.93;3.30;;;9.80;99.90;;;-143.32;100.00;52013.13;4921021;29;20953;-93
2021/05/15 22:53:46;;;;;;;10.47;3.83;;;9.80;99.90;;;-143.32;100.00;51992.94;4920977;29;20443;-93
2021/05/15 22:56:14;;;;;;;15.60;4.20;;;9.80;99.90;;;-143.32;100.00;52013.13;4921182;29;20431;-92
2021/05/15 22:58:42;;;;;;;9.73;3.83;;;9.80;99.90;;;-143.32;100.00;52011.13;4920968;29;20792;-93
2021/05/15 23:01:10;;;;;;;11.93;3.90;;;9.80;99.90;;;-143.32;100.00;52011.13;4920548;29;20518;-92
2021/05/15 23:03:38;;;;;;;12.17;4.10;;;9.80;99.90;;;-143.32;100.00;52005.06;4920329;29;20447;-93
2021/05/15 23:06:06;;;;;;;10.20;4.00;;;9.80;99.90;;;-143.32;100.00;52005.06;4920124;29;20791;-93
2021/05/15 23:08:32;;;;;;;13.77;4.47;;;9.80;99.90;;;-143.32;100.00;51994.97;4919769;29;20486;-93
2021/05/15 23:10:59;;;;;;;10.30;4.63;;;9.80;99.90;;;-143.32;100.00;52037.38;4920052;29;20439;-93
2021/05/15 23:13:26;;;;;;;17.17;4.67;;;9.80;99.90;;;-143.32;100.00;51986.88;4920004;29;20444;-93
2021/05/15 23:15:54;;;;;;;10.30;4.03;;;9.70;99.90;;;-143.32;100.00;52011.13;4920285;29;20849;-93
2021/05/15 23:18:23;;;;;;;14.07;4.20;;;9.70;99.90;;;-143.32;100.00;51990.94;4920260;29;20480;-93
2021/05/15 23:20:52;;;;;;;24.53;4.80;;;9.70;99.90;;;-143.32;100.00;51948.53;4920064;29;20495;-94
2021/05/15 23:23:19;;;;;;;17.13;5.30;;;9.60;99.90;;;-143.32;100.00;51948.53;4919989;29;20518;-94
2021/05/15 23:25:46;;;;;;;15.00;5.40;;;9.60;99.90;;;-143.32;100.00;51900.06;4919911;29;20514;-94
2021/05/15 23:28:13;;;;;;;11.20;5.63;;;9.50;99.90;;;-143.32;100.00;51898.06;4920520;29;20439;-94
2021/05/15 23:30:41;;;;;;;16.23;6.20;;;9.50;99.90;;;-143.32;100.00;51843.56;4919885;29;20447;-93
2021/05/15 23:33:09;;;;;;;12.80;5.63;;;9.50;99.90;;;-143.32;100.00;51835.47;4920199;29;20789;-93
2021/05/15 23:35:37;;;;;;;14.63;5.60;;;9.40;99.90;;;-143.32;100.00;51825.38;4919538;29;20439;-93
2021/05/15 23:38:04;;;;;;;18.07;5.37;;;9.40;99.90;;;-143.32;100.00;51740.59;4919424;29;20447;-93
2021/05/15 23:40:31;;;;;;;17.57;5.70;;;9.40;99.90;;;-143.32;100.00;51710.31;4919805;29;20491;-94
2021/05/15 23:42:59;;;;;;;15.97;5.93;;;9.40;99.90;;;-143.32;100.00;51605.34;4919468;29;20439;-94
2021/05/15 23:45:28;;;;;;;11.40;5.43;;;9.40;99.90;;;-143.32;100.00;51564.97;4919905;29;20451;-93
2021/05/15 23:47:56;;;;;;;24.33;7.60;;;9.50;99.90;;;-143.32;100.00;51536.72;4920377;29;20497;-93
2021/05/15 23:50:24;;;;;;;13.50;5.70;;;9.50;99.90;;;-143.32;100.00;51500.38;4919960;29;20454;-94
2021/05/15 23:52:52;;;;;;;20.50;5.67;;;9.50;99.90;;;-143.32;100.00;51476.16;4920506;29;20445;-93
2021/05/15 23:55:20;;;;;;;19.13;5.90;;;9.50;99.90;;;-143.32;100.00;51472.13;4922244;29;20447;-92
2021/05/15 23:57:46;;;;;;;11.33;4.90;;;9.60;99.90;;;-143.32;100.00;51472.13;4922078;29;20463;-92
